Ardenvoir, WA

7:46 AM PST on December 20, 2014 (GMT -0800)
Entiat Valley | Change Station
CLOSE
Current Station
Personal Weather Station
Location: Entiat, WA
Elevation: 1050 ft
Nearby Weather Stations

Elev 1050 ft 47.70 °N, 120.33 °W | Updated 2 seconds ago

Rain
Rain
32.8 °F
Feels Like 33 °F
N
0.0
Wind Variable Wind from West
Gusts 0.0 mph

Today
High -- | Low -- °F
--% Chance of Precip.
Yesterday
High -- | Low -- °F
Precip. -- in
7:47 AM 4:11 PM
Waning Crescent, 3% visible
Pressure 29.85 in
Visibility 4.0 miles
Clouds Overcast 300 ft
Windchill 33 °F
Dew Point 32 °F
Humidity 98%
Rainfall 0.05 in
Snow Depth Not available.
UV 16.0 out of 12
Pollen .50 out of 12
Air Quality Not available.
Flu Activity Not available.
METAR KEAT 201455Z AUTO 35004KT 4SM -RA BR OVC003 02/01 A2982 RMK AO2 SLP106 P0001 60005 T00220006 56021

More Conditions Fewer Conditions

Pressure 29.85 in
Visibility 4.0 miles
Clouds Overcast 300 ft
Windchill 33 °F
Dew Point 32 °F
Humidity 98%
Rainfall 0.05 in
Snow Depth Not available.
UV 16.0 out of 12
Pollen .50 out of 12
Air Quality Not available.
Flu Activity Not available.
METAR KEAT 201455Z AUTO 35004KT 4SM -RA BR OVC003 02/01 A2982 RMK AO2 SLP106 P0001 60005 T00220006 56021

More Conditions Fewer Conditions

10-Day Weather Forecast

Almanac

Astronomy

Dec. 20, 2014 Rise Set
Actual Time
Civil Twilight
Nautical Twilight
Astronomical Twilight
Moon
Length of Visible Light
Length of Day
Tomorrow will be .
, % of the Moon is Illuminated

Today's Extremes

State Highs State Lows

Community

WunderPhotos

Upload Photos

1,779,211 photos uploaded!

WunderBlogs® & News

Nearby

Air Quality

  Air Quality AQ Index Pollutant
Not available.

Snow Depth

Station Depth Elevation

Earthquake Activity

City Distance Mag. Time & Date
Minimum magnitude displayed is 2.5.

Coastal Water Temperatures

Place Temperature

Nearby Weather Stations